sensor_id;sensor_type;location;lat;lon;timestamp;P1;durP1;ratioP1;P2;durP2;ratioP2
83410;SDS011;73340;53.132;8.174;2023-12-22T00:02:52;6.07;;;1.40;;
83410;SDS011;73340;53.132;8.174;2023-12-22T00:07:43;13.13;;;2.20;;
83410;SDS011;73340;53.132;8.174;2023-12-22T00:12:34;7.82;;;1.67;;
83410;SDS011;73340;53.132;8.174;2023-12-22T00:17:24;7.88;;;1.60;;
83410;SDS011;73340;53.132;8.174;2023-12-22T00:22:14;4.88;;;2.13;;
83410;SDS011;73340;53.132;8.174;2023-12-22T00:24:40;10.30;;;2.07;;
83410;SDS011;73340;53.132;8.174;2023-12-22T00:27:05;8.13;;;1.83;;
83410;SDS011;73340;53.132;8.174;2023-12-22T00:31:56;5.80;;;1.30;;
83410;SDS011;73340;53.132;8.174;2023-12-22T00:36:46;7.90;;;1.92;;
83410;SDS011;73340;53.132;8.174;2023-12-22T00:41:37;9.85;;;2.20;;
83410;SDS011;73340;53.132;8.174;2023-12-22T00:44:02;8.77;;;1.70;;
83410;SDS011;73340;53.132;8.174;2023-12-22T00:48:52;16.92;;;2.92;;
83410;SDS011;73340;53.132;8.174;2023-12-22T00:51:17;13.27;;;2.27;;
83410;SDS011;73340;53.132;8.174;2023-12-22T00:53:42;11.33;;;2.70;;
83410;SDS011;73340;53.132;8.174;2023-12-22T00:56:08;10.60;;;1.90;;
83410;SDS011;73340;53.132;8.174;2023-12-22T00:58:33;8.23;;;2.20;;
83410;SDS011;73340;53.132;8.174;2023-12-22T01:03:23;8.75;;;2.58;;
83410;SDS011;73340;53.132;8.174;2023-12-22T01:08:14;13.77;;;2.85;;
83410;SDS011;73340;53.132;8.174;2023-12-22T01:13:04;12.90;;;2.57;;
83410;SDS011;73340;53.132;8.174;2023-12-22T01:15:29;11.23;;;2.10;;
83410;SDS011;73340;53.132;8.174;2023-12-22T01:20:19;9.18;;;1.73;;
83410;SDS011;73340;53.132;8.174;2023-12-22T01:25:10;12.57;;;1.70;;
83410;SDS011;73340;53.132;8.174;2023-12-22T01:30:00;9.15;;;2.00;;
83410;SDS011;73340;53.132;8.174;2023-12-22T01:34:50;6.87;;;1.90;;
83410;SDS011;73340;53.132;8.174;2023-12-22T01:39:40;7.70;;;1.83;;
83410;SDS011;73340;53.132;8.174;2023-12-22T01:44:31;10.07;;;2.07;;
83410;SDS011;73340;53.132;8.174;2023-12-22T01:49:21;7.47;;;1.48;;
83410;SDS011;73340;53.132;8.174;2023-12-22T01:54:12;7.80;;;1.60;;
83410;SDS011;73340;53.132;8.174;2023-12-22T01:56:38;9.82;;;2.22;;
83410;SDS011;73340;53.132;8.174;2023-12-22T02:01:29;13.65;;;1.88;;
83410;SDS011;73340;53.132;8.174;2023-12-22T02:06:19;9.98;;;1.85;;
83410;SDS011;73340;53.132;8.174;2023-12-22T02:11:09;8.73;;;1.70;;
83410;SDS011;73340;53.132;8.174;2023-12-22T02:16:01;8.20;;;1.67;;
83410;SDS011;73340;53.132;8.174;2023-12-22T02:18:30;11.20;;;2.20;;
83410;SDS011;73340;53.132;8.174;2023-12-22T02:20:58;7.30;;;1.83;;
83410;SDS011;73340;53.132;8.174;2023-12-22T02:25:49;11.70;;;2.58;;
83410;SDS011;73340;53.132;8.174;2023-12-22T02:28:18;9.55;;;2.03;;
83410;SDS011;73340;53.132;8.174;2023-12-22T02:35:36;9.23;;;2.10;;
83410;SDS011;73340;53.132;8.174;2023-12-22T02:40:26;15.23;;;2.20;;
83410;SDS011;73340;53.132;8.174;2023-12-22T02:45:17;8.50;;;2.35;;
83410;SDS011;73340;53.132;8.174;2023-12-22T02:50:08;14.00;;;2.75;;
83410;SDS011;73340;53.132;8.174;2023-12-22T02:54:58;14.02;;;1.83;;
83410;SDS011;73340;53.132;8.174;2023-12-22T02:59:49;12.77;;;3.28;;
83410;SDS011;73340;53.132;8.174;2023-12-22T03:04:39;8.88;;;2.20;;
83410;SDS011;73340;53.132;8.174;2023-12-22T03:09:30;11.93;;;2.55;;
83410;SDS011;73340;53.132;8.174;2023-12-22T03:14:26;24.17;;;3.33;;
83410;SDS011;73340;53.132;8.174;2023-12-22T03:19:16;22.45;;;3.85;;
83410;SDS011;73340;53.132;8.174;2023-12-22T03:24:07;12.30;;;2.75;;
83410;SDS011;73340;53.132;8.174;2023-12-22T03:28:57;8.85;;;1.80;;
83410;SDS011;73340;53.132;8.174;2023-12-22T03:33:47;9.93;;;1.90;;
83410;SDS011;73340;53.132;8.174;2023-12-22T03:38:38;7.07;;;1.90;;
83410;SDS011;73340;53.132;8.174;2023-12-22T03:43:28;10.60;;;2.38;;
83410;SDS011;73340;53.132;8.174;2023-12-22T03:45:54;15.55;;;2.90;;
83410;SDS011;73340;53.132;8.174;2023-12-22T03:50:45;12.45;;;2.63;;
83410;SDS011;73340;53.132;8.174;2023-12-22T03:55:35;15.50;;;2.47;;
83410;SDS011;73340;53.132;8.174;2023-12-22T04:00:25;19.58;;;3.35;;
83410;SDS011;73340;53.132;8.174;2023-12-22T04:05:16;22.40;;;3.63;;
83410;SDS011;73340;53.132;8.174;2023-12-22T04:10:06;17.83;;;2.55;;
83410;SDS011;73340;53.132;8.174;2023-12-22T04:14:57;12.13;;;2.83;;
83410;SDS011;73340;53.132;8.174;2023-12-22T04:17:22;11.07;;;3.73;;
83410;SDS011;73340;53.132;8.174;2023-12-22T04:22:12;11.48;;;2.60;;
83410;SDS011;73340;53.132;8.174;2023-12-22T04:27:03;18.33;;;2.80;;
83410;SDS011;73340;53.132;8.174;2023-12-22T04:31:53;12.00;;;2.55;;
83410;SDS011;73340;53.132;8.174;2023-12-22T04:36:43;18.35;;;2.17;;
83410;SDS011;73340;53.132;8.174;2023-12-22T04:39:08;17.47;;;2.93;;
83410;SDS011;73340;53.132;8.174;2023-12-22T04:43:59;19.67;;;3.83;;
83410;SDS011;73340;53.132;8.174;2023-12-22T04:46:28;12.15;;;2.33;;
83410;SDS011;73340;53.132;8.174;2023-12-22T04:51:18;13.17;;;2.93;;
83410;SDS011;73340;53.132;8.174;2023-12-22T04:53:43;12.30;;;2.10;;
83410;SDS011;73340;53.132;8.174;2023-12-22T04:58:34;6.25;;;2.10;;
83410;SDS011;73340;53.132;8.174;2023-12-22T05:03:24;14.50;;;2.13;;
83410;SDS011;73340;53.132;8.174;2023-12-22T05:08:14;7.38;;;2.42;;
83410;SDS011;73340;53.132;8.174;2023-12-22T05:10:41;6.78;;;2.10;;
83410;SDS011;73340;53.132;8.174;2023-12-22T05:15:31;12.40;;;2.50;;
83410;SDS011;73340;53.132;8.174;2023-12-22T05:20:22;15.43;;;2.33;;
83410;SDS011;73340;53.132;8.174;2023-12-22T05:25:15;10.90;;;2.15;;
83410;SDS011;73340;53.132;8.174;2023-12-22T05:27:40;9.95;;;2.25;;
83410;SDS011;73340;53.132;8.174;2023-12-22T05:30:08;12.25;;;1.90;;
83410;SDS011;73340;53.132;8.174;2023-12-22T05:34:58;8.82;;;1.50;;
83410;SDS011;73340;53.132;8.174;2023-12-22T05:37:23;9.53;;;1.83;;
83410;SDS011;73340;53.132;8.174;2023-12-22T05:39:48;9.57;;;2.17;;
83410;SDS011;73340;53.132;8.174;2023-12-22T05:42:13;11.37;;;1.83;;
83410;SDS011;73340;53.132;8.174;2023-12-22T05:44:39;6.50;;;1.57;;
83410;SDS011;73340;53.132;8.174;2023-12-22T05:47:04;7.95;;;1.73;;
83410;SDS011;73340;53.132;8.174;2023-12-22T05:51:55;9.90;;;1.57;;
83410;SDS011;73340;53.132;8.174;2023-12-22T05:54:20;7.43;;;2.23;;
83410;SDS011;73340;53.132;8.174;2023-12-22T05:56:46;16.23;;;2.60;;
83410;SDS011;73340;53.132;8.174;2023-12-22T06:01:36;11.48;;;1.88;;
83410;SDS011;73340;53.132;8.174;2023-12-22T06:06:27;17.07;;;2.00;;
83410;SDS011;73340;53.132;8.174;2023-12-22T06:11:17;9.68;;;2.55;;
83410;SDS011;73340;53.132;8.174;2023-12-22T06:16:14;14.57;;;2.95;;
83410;SDS011;73340;53.132;8.174;2023-12-22T06:18:39;22.83;;;3.08;;
83410;SDS011;73340;53.132;8.174;2023-12-22T06:23:30;12.57;;;2.90;;
83410;SDS011;73340;53.132;8.174;2023-12-22T06:28:20;20.85;;;3.58;;
83410;SDS011;73340;53.132;8.174;2023-12-22T06:30:45;19.50;;;4.17;;
83410;SDS011;73340;53.132;8.174;2023-12-22T06:33:12;22.77;;;4.45;;
83410;SDS011;73340;53.132;8.174;2023-12-22T06:38:02;16.38;;;3.28;;
83410;SDS011;73340;53.132;8.174;2023-12-22T06:40:30;20.00;;;3.30;;
83410;SDS011;73340;53.132;8.174;2023-12-22T06:45:20;13.68;;;2.92;;
83410;SDS011;73340;53.132;8.174;2023-12-22T06:50:11;15.43;;;3.10;;
83410;SDS011;73340;53.132;8.174;2023-12-22T06:55:01;23.33;;;3.60;;
83410;SDS011;73340;53.132;8.174;2023-12-22T06:59:52;22.52;;;4.35;;
83410;SDS011;73340;53.132;8.174;2023-12-22T07:05:02;16.25;;;3.25;;
83410;SDS011;73340;53.132;8.174;2023-12-22T07:07:31;11.57;;;2.70;;
83410;SDS011;73340;53.132;8.174;2023-12-22T07:12:21;20.48;;;3.45;;
83410;SDS011;73340;53.132;8.174;2023-12-22T07:17:11;18.67;;;2.38;;
83410;SDS011;73340;53.132;8.174;2023-12-22T07:22:02;9.82;;;2.47;;
83410;SDS011;73340;53.132;8.174;2023-12-22T07:24:28;15.65;;;3.10;;
83410;SDS011;73340;53.132;8.174;2023-12-22T07:29:19;14.63;;;2.42;;
83410;SDS011;73340;53.132;8.174;2023-12-22T07:31:44;10.77;;;2.37;;
83410;SDS011;73340;53.132;8.174;2023-12-22T07:36:34;15.52;;;2.47;;
83410;SDS011;73340;53.132;8.174;2023-12-22T07:41:25;18.23;;;3.60;;
83410;SDS011;73340;53.132;8.174;2023-12-22T07:46:16;20.90;;;3.72;;
83410;SDS011;73340;53.132;8.174;2023-12-22T07:51:07;15.93;;;3.25;;
83410;SDS011;73340;53.132;8.174;2023-12-22T07:55:57;18.40;;;4.57;;
83410;SDS011;73340;53.132;8.174;2023-12-22T07:58:24;15.45;;;3.45;;
83410;SDS011;73340;53.132;8.174;2023-12-22T08:00:49;22.37;;;4.17;;
83410;SDS011;73340;53.132;8.174;2023-12-22T08:05:39;15.95;;;3.38;;
83410;SDS011;73340;53.132;8.174;2023-12-22T08:10:29;16.20;;;3.60;;
83410;SDS011;73340;53.132;8.174;2023-12-22T08:15:20;16.08;;;3.50;;
83410;SDS011;73340;53.132;8.174;2023-12-22T08:20:10;16.63;;;2.30;;
83410;SDS011;73340;53.132;8.174;2023-12-22T08:25:00;11.53;;;2.47;;
83410;SDS011;73340;53.132;8.174;2023-12-22T08:27:26;14.95;;;2.83;;
83410;SDS011;73340;53.132;8.174;2023-12-22T08:32:16;11.55;;;2.35;;
83410;SDS011;73340;53.132;8.174;2023-12-22T08:34:41;11.47;;;2.67;;
83410;SDS011;73340;53.132;8.174;2023-12-22T08:39:31;9.10;;;1.90;;
83410;SDS011;73340;53.132;8.174;2023-12-22T08:44:22;10.55;;;2.83;;
83410;SDS011;73340;53.132;8.174;2023-12-22T08:46:47;15.07;;;4.57;;
83410;SDS011;73340;53.132;8.174;2023-12-22T08:49:12;11.27;;;2.00;;
83410;SDS011;73340;53.132;8.174;2023-12-22T08:51:37;11.83;;;2.23;;
83410;SDS011;73340;53.132;8.174;2023-12-22T08:54:03;15.07;;;2.37;;
83410;SDS011;73340;53.132;8.174;2023-12-22T08:56:30;9.48;;;2.15;;
83410;SDS011;73340;53.132;8.174;2023-12-22T08:58:56;14.93;;;2.10;;
83410;SDS011;73340;53.132;8.174;2023-12-22T09:01:23;14.32;;;2.55;;
83410;SDS011;73340;53.132;8.174;2023-12-22T09:03:49;8.30;;;2.40;;
83410;SDS011;73340;53.132;8.174;2023-12-22T09:08:39;12.93;;;2.30;;
83410;SDS011;73340;53.132;8.174;2023-12-22T09:13:29;9.43;;;1.92;;
83410;SDS011;73340;53.132;8.174;2023-12-22T09:18:20;9.52;;;1.80;;
83410;SDS011;73340;53.132;8.174;2023-12-22T09:23:10;8.82;;;2.17;;
83410;SDS011;73340;53.132;8.174;2023-12-22T09:28:00;7.85;;;1.50;;
83410;SDS011;73340;53.132;8.174;2023-12-22T09:32:51;15.00;;;1.90;;
83410;SDS011;73340;53.132;8.174;2023-12-22T09:37:42;13.57;;;3.00;;
83410;SDS011;73340;53.132;8.174;2023-12-22T09:42:35;17.70;;;2.60;;
83410;SDS011;73340;53.132;8.174;2023-12-22T09:47:25;10.18;;;2.30;;
83410;SDS011;73340;53.132;8.174;2023-12-22T09:49:54;15.07;;;2.70;;
83410;SDS011;73340;53.132;8.174;2023-12-22T09:54:45;11.77;;;2.38;;
83410;SDS011;73340;53.132;8.174;2023-12-22T09:57:11;9.00;;;2.15;;
83410;SDS011;73340;53.132;8.174;2023-12-22T10:02:02;10.55;;;2.17;;
83410;SDS011;73340;53.132;8.174;2023-12-22T10:04:28;12.50;;;2.65;;
83410;SDS011;73340;53.132;8.174;2023-12-22T10:09:18;7.40;;;2.00;;
83410;SDS011;73340;53.132;8.174;2023-12-22T10:11:44;14.93;;;3.00;;
83410;SDS011;73340;53.132;8.174;2023-12-22T10:14:09;14.27;;;2.97;;
83410;SDS011;73340;53.132;8.174;2023-12-22T10:19:00;10.67;;;2.10;;
83410;SDS011;73340;53.132;8.174;2023-12-22T10:21:26;11.32;;;2.60;;
83410;SDS011;73340;53.132;8.174;2023-12-22T10:23:51;15.57;;;2.37;;
83410;SDS011;73340;53.132;8.174;2023-12-22T10:26:17;9.70;;;2.67;;
83410;SDS011;73340;53.132;8.174;2023-12-22T10:31:08;11.13;;;2.35;;
83410;SDS011;73340;53.132;8.174;2023-12-22T10:33:33;12.60;;;3.22;;
83410;SDS011;73340;53.132;8.174;2023-12-22T10:38:24;13.68;;;2.58;;
83410;SDS011;73340;53.132;8.174;2023-12-22T10:43:14;13.02;;;2.63;;
83410;SDS011;73340;53.132;8.174;2023-12-22T10:45:40;13.60;;;2.50;;
83410;SDS011;73340;53.132;8.174;2023-12-22T10:48:05;13.95;;;2.70;;
83410;SDS011;73340;53.132;8.174;2023-12-22T10:50:31;23.70;;;2.78;;
83410;SDS011;73340;53.132;8.174;2023-12-22T10:55:22;15.93;;;3.05;;
83410;SDS011;73340;53.132;8.174;2023-12-22T10:57:47;18.45;;;3.17;;
83410;SDS011;73340;53.132;8.174;2023-12-22T11:00:14;17.33;;;3.70;;
83410;SDS011;73340;53.132;8.174;2023-12-22T11:02:41;17.52;;;2.55;;
83410;SDS011;73340;53.132;8.174;2023-12-22T11:07:34;16.38;;;3.33;;
83410;SDS011;73340;53.132;8.174;2023-12-22T11:10:05;11.55;;;2.58;;
83410;SDS011;73340;53.132;8.174;2023-12-22T11:12:37;23.58;;;3.15;;
83410;SDS011;73340;53.132;8.174;2023-12-22T11:15:03;15.20;;;3.00;;
83410;SDS011;73340;53.132;8.174;2023-12-22T11:17:31;13.88;;;3.05;;
83410;SDS011;73340;53.132;8.174;2023-12-22T11:19:57;18.40;;;2.75;;
83410;SDS011;73340;53.132;8.174;2023-12-22T11:24:48;9.60;;;2.53;;
83410;SDS011;73340;53.132;8.174;2023-12-22T11:27:16;9.40;;;2.10;;
83410;SDS011;73340;53.132;8.174;2023-12-22T11:29:42;14.32;;;2.75;;
83410;SDS011;73340;53.132;8.174;2023-12-22T11:32:08;17.10;;;2.63;;
83410;SDS011;73340;53.132;8.174;2023-12-22T11:36:59;6.83;;;1.80;;
83410;SDS011;73340;53.132;8.174;2023-12-22T11:39:25;15.70;;;2.47;;
83410;SDS011;73340;53.132;8.174;2023-12-22T11:41:50;7.85;;;2.55;;
83410;SDS011;73340;53.132;8.174;2023-12-22T11:44:17;6.50;;;2.15;;
83410;SDS011;73340;53.132;8.174;2023-12-22T11:49:07;14.57;;;2.70;;
83410;SDS011;73340;53.132;8.174;2023-12-22T11:51:33;14.10;;;2.10;;
83410;SDS011;73340;53.132;8.174;2023-12-22T11:54:01;10.40;;;2.38;;
83410;SDS011;73340;53.132;8.174;2023-12-22T11:56:26;16.83;;;2.15;;
83410;SDS011;73340;53.132;8.174;2023-12-22T11:58:53;13.05;;;2.35;;
83410;SDS011;73340;53.132;8.174;2023-12-22T12:01:20;11.77;;;2.33;;
83410;SDS011;73340;53.132;8.174;2023-12-22T12:03:56;7.68;;;1.50;;
83410;SDS011;73340;53.132;8.174;2023-12-22T12:06:23;10.45;;;2.22;;
83410;SDS011;73340;53.132;8.174;2023-12-22T12:08:55;12.13;;;2.00;;
83410;SDS011;73340;53.132;8.174;2023-12-22T12:11:21;9.25;;;1.80;;
83410;SDS011;73340;53.132;8.174;2023-12-22T12:13:46;6.93;;;1.70;;
83410;SDS011;73340;53.132;8.174;2023-12-22T12:16:12;10.98;;;2.00;;
83410;SDS011;73340;53.132;8.174;2023-12-22T12:23:28;8.00;;;1.60;;
83410;SDS011;73340;53.132;8.174;2023-12-22T12:25:53;9.43;;;1.80;;
83410;SDS011;73340;53.132;8.174;2023-12-22T12:28:23;12.82;;;2.63;;
83410;SDS011;73340;53.132;8.174;2023-12-22T12:30:49;11.13;;;2.53;;
83410;SDS011;73340;53.132;8.174;2023-12-22T12:33:21;10.55;;;2.55;;
83410;SDS011;73340;53.132;8.174;2023-12-22T12:35:46;10.87;;;1.73;;
83410;SDS011;73340;53.132;8.174;2023-12-22T12:38:11;6.50;;;1.40;;
83410;SDS011;73340;53.132;8.174;2023-12-22T12:43:02;13.00;;;2.13;;
83410;SDS011;73340;53.132;8.174;2023-12-22T12:45:27;7.75;;;1.80;;
83410;SDS011;73340;53.132;8.174;2023-12-22T12:47:54;11.30;;;1.45;;
83410;SDS011;73340;53.132;8.174;2023-12-22T12:50:21;7.47;;;2.08;;
83410;SDS011;73340;53.132;8.174;2023-12-22T12:52:46;9.40;;;1.73;;
83410;SDS011;73340;53.132;8.174;2023-12-22T12:55:12;5.37;;;1.83;;
83410;SDS011;73340;53.132;8.174;2023-12-22T12:57:37;11.60;;;2.50;;
83410;SDS011;73340;53.132;8.174;2023-12-22T13:00:02;7.63;;;1.90;;
83410;SDS011;73340;53.132;8.174;2023-12-22T13:02:28;11.45;;;2.05;;
83410;SDS011;73340;53.132;8.174;2023-12-22T13:04:53;8.80;;;2.33;;
83410;SDS011;73340;53.132;8.174;2023-12-22T13:07:25;10.97;;;1.83;;
83410;SDS011;73340;53.132;8.174;2023-12-22T13:09:50;9.15;;;2.45;;
83410;SDS011;73340;53.132;8.174;2023-12-22T13:12:16;7.97;;;1.98;;
83410;SDS011;73340;53.132;8.174;2023-12-22T13:14:41;13.77;;;2.30;;
83410;SDS011;73340;53.132;8.174;2023-12-22T13:17:07;10.70;;;2.63;;
83410;SDS011;73340;53.132;8.174;2023-12-22T13:19:34;10.90;;;2.30;;
83410;SDS011;73340;53.132;8.174;2023-12-22T13:22:00;9.60;;;1.70;;
83410;SDS011;73340;53.132;8.174;2023-12-22T13:24:26;10.90;;;2.40;;
83410;SDS011;73340;53.132;8.174;2023-12-22T13:27:02;15.93;;;3.45;;
83410;SDS011;73340;53.132;8.174;2023-12-22T13:29:28;8.73;;;2.33;;
83410;SDS011;73340;53.132;8.174;2023-12-22T13:31:53;13.35;;;2.45;;
83410;SDS011;73340;53.132;8.174;2023-12-22T13:34:19;15.95;;;2.45;;
83410;SDS011;73340;53.132;8.174;2023-12-22T13:36:44;12.02;;;1.80;;
83410;SDS011;73340;53.132;8.174;2023-12-22T13:39:09;13.87;;;2.07;;
83410;SDS011;73340;53.132;8.174;2023-12-22T13:41:40;12.07;;;2.67;;
83410;SDS011;73340;53.132;8.174;2023-12-22T13:44:07;12.00;;;2.70;;
83410;SDS011;73340;53.132;8.174;2023-12-22T13:46:32;9.30;;;2.38;;
83410;SDS011;73340;53.132;8.174;2023-12-22T13:49:00;8.43;;;1.55;;
83410;SDS011;73340;53.132;8.174;2023-12-22T13:51:25;12.55;;;2.33;;
83410;SDS011;73340;53.132;8.174;2023-12-22T13:53:50;12.60;;;2.17;;
83410;SDS011;73340;53.132;8.174;2023-12-22T13:56:16;10.43;;;2.13;;
83410;SDS011;73340;53.132;8.174;2023-12-22T13:58:44;13.57;;;2.20;;
83410;SDS011;73340;53.132;8.174;2023-12-22T14:01:13;8.02;;;2.10;;
83410;SDS011;73340;53.132;8.174;2023-12-22T14:03:40;16.65;;;2.50;;
83410;SDS011;73340;53.132;8.174;2023-12-22T14:06:05;14.07;;;2.00;;
83410;SDS011;73340;53.132;8.174;2023-12-22T14:08:34;9.25;;;2.25;;
83410;SDS011;73340;53.132;8.174;2023-12-22T14:10:59;10.40;;;2.37;;
83410;SDS011;73340;53.132;8.174;2023-12-22T14:13:24;7.07;;;1.73;;
83410;SDS011;73340;53.132;8.174;2023-12-22T14:15:49;8.43;;;1.50;;
83410;SDS011;73340;53.132;8.174;2023-12-22T14:18:14;10.23;;;1.80;;
83410;SDS011;73340;53.132;8.174;2023-12-22T14:20:39;7.20;;;1.93;;
83410;SDS011;73340;53.132;8.174;2023-12-22T14:23:05;8.60;;;2.50;;
83410;SDS011;73340;53.132;8.174;2023-12-22T14:25:30;11.03;;;1.50;;
83410;SDS011;73340;53.132;8.174;2023-12-22T14:27:57;5.85;;;1.52;;
83410;SDS011;73340;53.132;8.174;2023-12-22T14:30:23;12.35;;;1.55;;
83410;SDS011;73340;53.132;8.174;2023-12-22T14:32:49;9.73;;;1.33;;
83410;SDS011;73340;53.132;8.174;2023-12-22T14:35:14;4.07;;;0.97;;
83410;SDS011;73340;53.132;8.174;2023-12-22T14:37:39;5.28;;;1.10;;
83410;SDS011;73340;53.132;8.174;2023-12-22T14:40:05;3.17;;;1.10;;
83410;SDS011;73340;53.132;8.174;2023-12-22T14:42:31;3.55;;;1.00;;
83410;SDS011;73340;53.132;8.174;2023-12-22T14:44:56;4.85;;;1.20;;
83410;SDS011;73340;53.132;8.174;2023-12-22T14:47:21;2.47;;;1.07;;
83410;SDS011;73340;53.132;8.174;2023-12-22T14:52:12;4.53;;;1.23;;
83410;SDS011;73340;53.132;8.174;2023-12-22T14:57:02;5.15;;;1.40;;
83410;SDS011;73340;53.132;8.174;2023-12-22T15:01:52;9.25;;;1.60;;
83410;SDS011;73340;53.132;8.174;2023-12-22T15:06:45;7.30;;;1.20;;
83410;SDS011;73340;53.132;8.174;2023-12-22T15:09:10;2.50;;;1.05;;
83410;SDS011;73340;53.132;8.174;2023-12-22T15:14:00;2.35;;;1.00;;
83410;SDS011;73340;53.132;8.174;2023-12-22T15:18:51;4.25;;;1.27;;
83410;SDS011;73340;53.132;8.174;2023-12-22T15:23:41;3.33;;;1.60;;
83410;SDS011;73340;53.132;8.174;2023-12-22T15:28:32;2.72;;;1.10;;
83410;SDS011;73340;53.132;8.174;2023-12-22T15:33:22;3.05;;;1.30;;
83410;SDS011;73340;53.132;8.174;2023-12-22T15:38:13;9.32;;;1.65;;
83410;SDS011;73340;53.132;8.174;2023-12-22T15:40:38;8.95;;;1.80;;
83410;SDS011;73340;53.132;8.174;2023-12-22T15:45:29;4.35;;;1.25;;
83410;SDS011;73340;53.132;8.174;2023-12-22T15:50:20;2.55;;;1.08;;
83410;SDS011;73340;53.132;8.174;2023-12-22T15:55:10;3.28;;;1.92;;
83410;SDS011;73340;53.132;8.174;2023-12-22T15:57:36;9.63;;;3.25;;
83410;SDS011;73340;53.132;8.174;2023-12-22T16:02:27;9.53;;;2.27;;
83410;SDS011;73340;53.132;8.174;2023-12-22T16:04:52;9.57;;;4.37;;
83410;SDS011;73340;53.132;8.174;2023-12-22T16:07:17;5.10;;;2.25;;
83410;SDS011;73340;53.132;8.174;2023-12-22T16:12:08;5.65;;;1.48;;
83410;SDS011;73340;53.132;8.174;2023-12-22T16:16:58;6.68;;;1.80;;
83410;SDS011;73340;53.132;8.174;2023-12-22T16:19:24;3.90;;;1.60;;
83410;SDS011;73340;53.132;8.174;2023-12-22T16:24:20;4.38;;;1.33;;
83410;SDS011;73340;53.132;8.174;2023-12-22T16:26:45;8.70;;;1.67;;
83410;SDS011;73340;53.132;8.174;2023-12-22T16:31:39;6.30;;;2.03;;
83410;SDS011;73340;53.132;8.174;2023-12-22T16:34:05;4.40;;;1.52;;
83410;SDS011;73340;53.132;8.174;2023-12-22T16:38:55;7.53;;;1.60;;
83410;SDS011;73340;53.132;8.174;2023-12-22T16:43:46;3.90;;;1.50;;
83410;SDS011;73340;53.132;8.174;2023-12-22T16:48:37;9.32;;;1.85;;
83410;SDS011;73340;53.132;8.174;2023-12-22T16:51:02;4.37;;;0.97;;
83410;SDS011;73340;53.132;8.174;2023-12-22T16:55:52;2.90;;;1.00;;
83410;SDS011;73340;53.132;8.174;2023-12-22T17:00:43;3.60;;;1.23;;
83410;SDS011;73340;53.132;8.174;2023-12-22T17:05:33;7.38;;;1.15;;
83410;SDS011;73340;53.132;8.174;2023-12-22T17:10:23;4.93;;;1.30;;
83410;SDS011;73340;53.132;8.174;2023-12-22T17:12:49;8.18;;;1.35;;
83410;SDS011;73340;53.132;8.174;2023-12-22T17:17:41;6.00;;;1.38;;
83410;SDS011;73340;53.132;8.174;2023-12-22T17:22:33;9.05;;;2.83;;
83410;SDS011;73340;53.132;8.174;2023-12-22T17:27:23;3.83;;;1.00;;
83410;SDS011;73340;53.132;8.174;2023-12-22T17:29:49;5.35;;;1.30;;
83410;SDS011;73340;53.132;8.174;2023-12-22T17:32:14;5.53;;;1.70;;
83410;SDS011;73340;53.132;8.174;2023-12-22T17:34:39;3.40;;;1.40;;
83410;SDS011;73340;53.132;8.174;2023-12-22T17:39:30;2.95;;;1.10;;
83410;SDS011;73340;53.132;8.174;2023-12-22T17:44:20;6.03;;;1.60;;
83410;SDS011;73340;53.132;8.174;2023-12-22T17:49:10;5.43;;;1.00;;
83410;SDS011;73340;53.132;8.174;2023-12-22T17:54:01;3.42;;;1.10;;
83410;SDS011;73340;53.132;8.174;2023-12-22T17:58:52;3.88;;;1.10;;
83410;SDS011;73340;53.132;8.174;2023-12-22T18:03:42;4.85;;;1.50;;
83410;SDS011;73340;53.132;8.174;2023-12-22T18:08:32;7.07;;;2.55;;
83410;SDS011;73340;53.132;8.174;2023-12-22T18:13:23;6.20;;;1.60;;
83410;SDS011;73340;53.132;8.174;2023-12-22T18:18:13;13.02;;;4.85;;
83410;SDS011;73340;53.132;8.174;2023-12-22T18:20:38;6.70;;;1.90;;
83410;SDS011;73340;53.132;8.174;2023-12-22T18:23:05;8.40;;;1.70;;
83410;SDS011;73340;53.132;8.174;2023-12-22T18:27:56;3.85;;;1.30;;
83410;SDS011;73340;53.132;8.174;2023-12-22T18:30:21;4.40;;;1.20;;
83410;SDS011;73340;53.132;8.174;2023-12-22T18:32:46;4.60;;;1.60;;
83410;SDS011;73340;53.132;8.174;2023-12-22T18:37:37;4.03;;;1.50;;
83410;SDS011;73340;53.132;8.174;2023-12-22T18:40:02;8.30;;;2.30;;
83410;SDS011;73340;53.132;8.174;2023-12-22T18:42:27;5.68;;;1.58;;
83410;SDS011;73340;53.132;8.174;2023-12-22T18:44:53;2.93;;;1.53;;
83410;SDS011;73340;53.132;8.174;2023-12-22T18:47:20;3.88;;;2.00;;
83410;SDS011;73340;53.132;8.174;2023-12-22T18:52:11;3.53;;;2.22;;
83410;SDS011;73340;53.132;8.174;2023-12-22T18:57:01;6.28;;;1.90;;
83410;SDS011;73340;53.132;8.174;2023-12-22T19:01:51;2.33;;;1.17;;
83410;SDS011;73340;53.132;8.174;2023-12-22T19:06:42;4.13;;;1.60;;
83410;SDS011;73340;53.132;8.174;2023-12-22T19:11:34;4.90;;;1.40;;
83410;SDS011;73340;53.132;8.174;2023-12-22T19:16:24;4.90;;;1.92;;
83410;SDS011;73340;53.132;8.174;2023-12-22T19:21:15;5.28;;;1.48;;
83410;SDS011;73340;53.132;8.174;2023-12-22T19:23:43;2.78;;;1.63;;
83410;SDS011;73340;53.132;8.174;2023-12-22T19:28:33;4.78;;;1.58;;
83410;SDS011;73340;53.132;8.174;2023-12-22T19:33:23;4.20;;;2.28;;
83410;SDS011;73340;53.132;8.174;2023-12-22T19:38:14;4.63;;;1.33;;
83410;SDS011;73340;53.132;8.174;2023-12-22T19:40:43;5.05;;;1.40;;
83410;SDS011;73340;53.132;8.174;2023-12-22T19:43:10;3.65;;;1.35;;
83410;SDS011;73340;53.132;8.174;2023-12-22T19:48:00;6.57;;;1.38;;
83410;SDS011;73340;53.132;8.174;2023-12-22T19:52:53;5.22;;;1.25;;
83410;SDS011;73340;53.132;8.174;2023-12-22T19:57:43;7.65;;;2.28;;
83410;SDS011;73340;53.132;8.174;2023-12-22T20:02:35;2.00;;;1.13;;
83410;SDS011;73340;53.132;8.174;2023-12-22T20:07:26;7.30;;;1.40;;
83410;SDS011;73340;53.132;8.174;2023-12-22T20:09:51;2.67;;;1.00;;
83410;SDS011;73340;53.132;8.174;2023-12-22T20:14:42;2.00;;;0.90;;
83410;SDS011;73340;53.132;8.174;2023-12-22T20:19:32;4.68;;;1.23;;
83410;SDS011;73340;53.132;8.174;2023-12-22T20:24:22;2.63;;;1.20;;
83410;SDS011;73340;53.132;8.174;2023-12-22T20:29:13;7.07;;;2.05;;
83410;SDS011;73340;53.132;8.174;2023-12-22T20:34:03;5.95;;;1.38;;
83410;SDS011;73340;53.132;8.174;2023-12-22T20:38:54;4.32;;;1.30;;
83410;SDS011;73340;53.132;8.174;2023-12-22T20:43:45;4.07;;;1.15;;
83410;SDS011;73340;53.132;8.174;2023-12-22T20:48:35;4.30;;;1.23;;
83410;SDS011;73340;53.132;8.174;2023-12-22T20:53:26;5.88;;;1.40;;
83410;SDS011;73340;53.132;8.174;2023-12-22T20:58:16;8.73;;;2.20;;
83410;SDS011;73340;53.132;8.174;2023-12-22T21:00:41;7.90;;;1.50;;
83410;SDS011;73340;53.132;8.174;2023-12-22T21:05:31;6.65;;;1.55;;
83410;SDS011;73340;53.132;8.174;2023-12-22T21:10:22;9.52;;;1.52;;
83410;SDS011;73340;53.132;8.174;2023-12-22T21:15:12;5.97;;;1.93;;
83410;SDS011;73340;53.132;8.174;2023-12-22T21:17:38;8.98;;;1.50;;
83410;SDS011;73340;53.132;8.174;2023-12-22T21:20:07;3.53;;;1.50;;
83410;SDS011;73340;53.132;8.174;2023-12-22T21:24:58;6.60;;;1.33;;
83410;SDS011;73340;53.132;8.174;2023-12-22T21:29:48;6.90;;;1.83;;
83410;SDS011;73340;53.132;8.174;2023-12-22T21:34:39;8.03;;;1.80;;
83410;SDS011;73340;53.132;8.174;2023-12-22T21:39:29;9.25;;;2.42;;
83410;SDS011;73340;53.132;8.174;2023-12-22T21:44:19;9.38;;;2.58;;
83410;SDS011;73340;53.132;8.174;2023-12-22T21:49:10;5.30;;;1.50;;
83410;SDS011;73340;53.132;8.174;2023-12-22T21:54:00;12.03;;;1.47;;
83410;SDS011;73340;53.132;8.174;2023-12-22T21:58:51;10.63;;;1.63;;
83410;SDS011;73340;53.132;8.174;2023-12-22T22:03:44;8.30;;;2.22;;
83410;SDS011;73340;53.132;8.174;2023-12-22T22:08:35;8.77;;;1.70;;
83410;SDS011;73340;53.132;8.174;2023-12-22T22:13:25;5.15;;;1.95;;
83410;SDS011;73340;53.132;8.174;2023-12-22T22:18:16;10.05;;;1.73;;